sensor_id;sensor_type;location;lat;lon;timestamp;P1;durP1;ratioP1;P2;durP2;ratioP2
76348;SDS011;65172;46.764;15.406;2023-04-01T00:02:17;3.00;;;1.40;;
76348;SDS011;65172;46.764;15.406;2023-04-01T00:04:43;1.83;;;1.38;;
76348;SDS011;65172;46.764;15.406;2023-04-01T00:07:09;1.98;;;1.25;;
76348;SDS011;65172;46.764;15.406;2023-04-01T00:09:34;2.33;;;1.70;;
76348;SDS011;65172;46.764;15.406;2023-04-01T00:12:00;3.15;;;2.15;;
76348;SDS011;65172;46.764;15.406;2023-04-01T00:14:26;6.20;;;1.60;;
76348;SDS011;65172;46.764;15.406;2023-04-01T00:16:52;3.35;;;2.13;;
76348;SDS011;65172;46.764;15.406;2023-04-01T00:19:17;4.63;;;2.25;;
76348;SDS011;65172;46.764;15.406;2023-04-01T00:21:43;4.85;;;2.30;;
76348;SDS011;65172;46.764;15.406;2023-04-01T00:24:09;2.35;;;1.95;;
76348;SDS011;65172;46.764;15.406;2023-04-01T00:26:35;3.35;;;2.03;;
76348;SDS011;65172;46.764;15.406;2023-04-01T00:29:00;3.33;;;2.15;;
76348;SDS011;65172;46.764;15.406;2023-04-01T00:31:26;2.85;;;2.00;;
76348;SDS011;65172;46.764;15.406;2023-04-01T00:33:51;3.47;;;2.20;;
76348;SDS011;65172;46.764;15.406;2023-04-01T00:38:48;3.58;;;2.17;;
76348;SDS011;65172;46.764;15.406;2023-04-01T00:41:14;3.78;;;2.00;;
76348;SDS011;65172;46.764;15.406;2023-04-01T00:43:41;3.40;;;2.30;;
76348;SDS011;65172;46.764;15.406;2023-04-01T00:46:07;6.50;;;2.60;;
76348;SDS011;65172;46.764;15.406;2023-04-01T00:48:33;2.70;;;2.05;;
76348;SDS011;65172;46.764;15.406;2023-04-01T00:51:15;3.70;;;2.63;;
76348;SDS011;65172;46.764;15.406;2023-04-01T00:53:45;3.60;;;2.05;;
76348;SDS011;65172;46.764;15.406;2023-04-01T00:56:23;3.00;;;1.88;;
76348;SDS011;65172;46.764;15.406;2023-04-01T00:58:54;6.40;;;1.70;;
76348;SDS011;65172;46.764;15.406;2023-04-01T01:01:23;3.28;;;2.17;;
76348;SDS011;65172;46.764;15.406;2023-04-01T01:03:49;2.17;;;1.60;;
76348;SDS011;65172;46.764;15.406;2023-04-01T01:09:10;4.45;;;2.30;;
76348;SDS011;65172;46.764;15.406;2023-04-01T01:16:56;3.17;;;2.30;;
76348;SDS011;65172;46.764;15.406;2023-04-01T01:22:05;4.53;;;2.55;;
76348;SDS011;65172;46.764;15.406;2023-04-01T01:24:39;3.88;;;2.45;;
76348;SDS011;65172;46.764;15.406;2023-04-01T01:27:15;4.10;;;2.47;;
76348;SDS011;65172;46.764;15.406;2023-04-01T01:37:50;5.20;;;2.40;;
76348;SDS011;65172;46.764;15.406;2023-04-01T01:40:19;2.97;;;2.25;;
76348;SDS011;65172;46.764;15.406;2023-04-01T01:42:47;5.63;;;2.25;;
76348;SDS011;65172;46.764;15.406;2023-04-01T01:45:16;3.53;;;2.55;;
76348;SDS011;65172;46.764;15.406;2023-04-01T01:47:44;6.70;;;2.70;;
76348;SDS011;65172;46.764;15.406;2023-04-01T01:50:11;3.00;;;1.90;;
76348;SDS011;65172;46.764;15.406;2023-04-01T01:52:36;62.88;;;4.35;;
76348;SDS011;65172;46.764;15.406;2023-04-01T01:55:02;2.25;;;1.90;;
76348;SDS011;65172;46.764;15.406;2023-04-01T01:57:29;3.30;;;2.30;;
76348;SDS011;65172;46.764;15.406;2023-04-01T01:59:59;9.95;;;3.15;;
76348;SDS011;65172;46.764;15.406;2023-04-01T02:02:28;4.60;;;3.30;;
76348;SDS011;65172;46.764;15.406;2023-04-01T02:04:56;5.72;;;4.03;;
76348;SDS011;65172;46.764;15.406;2023-04-01T02:07:23;4.22;;;3.00;;
76348;SDS011;65172;46.764;15.406;2023-04-01T02:09:51;14.50;;;4.40;;
76348;SDS011;65172;46.764;15.406;2023-04-01T02:12:17;409.15;;;19.17;;
76348;SDS011;65172;46.764;15.406;2023-04-01T02:14:50;5.00;;;3.58;;
76348;SDS011;65172;46.764;15.406;2023-04-01T02:17:19;7.28;;;3.58;;
76348;SDS011;65172;46.764;15.406;2023-04-01T02:19:48;5.50;;;3.28;;
76348;SDS011;65172;46.764;15.406;2023-04-01T02:22:17;6.30;;;3.00;;
76348;SDS011;65172;46.764;15.406;2023-04-01T02:24:45;7.75;;;3.05;;
76348;SDS011;65172;46.764;15.406;2023-04-01T02:27:11;8.52;;;3.65;;
76348;SDS011;65172;46.764;15.406;2023-04-01T02:29:37;45.53;;;5.20;;
76348;SDS011;65172;46.764;15.406;2023-04-01T02:32:03;248.80;;;10.82;;
76348;SDS011;65172;46.764;15.406;2023-04-01T02:34:29;20.83;;;9.25;;
76348;SDS011;65172;46.764;15.406;2023-04-01T02:36:55;12.32;;;7.97;;
76348;SDS011;65172;46.764;15.406;2023-04-01T02:39:21;16.77;;;9.85;;
76348;SDS011;65172;46.764;15.406;2023-04-01T02:41:47;46.42;;;7.82;;
76348;SDS011;65172;46.764;15.406;2023-04-01T02:44:13;447.40;;;21.73;;
76348;SDS011;65172;46.764;15.406;2023-04-01T02:46:40;403.45;;;21.70;;
76348;SDS011;65172;46.764;15.406;2023-04-01T02:49:06;85.38;;;8.32;;
76348;SDS011;65172;46.764;15.406;2023-04-01T02:51:31;172.77;;;11.45;;
76348;SDS011;65172;46.764;15.406;2023-04-01T02:53:57;6.20;;;4.43;;
76348;SDS011;65172;46.764;15.406;2023-04-01T02:56:23;8.48;;;4.88;;
76348;SDS011;65172;46.764;15.406;2023-04-01T02:58:48;5.20;;;4.13;;
76348;SDS011;65172;46.764;15.406;2023-04-01T03:01:14;7.40;;;4.95;;
76348;SDS011;65172;46.764;15.406;2023-04-01T03:03:39;6.63;;;4.97;;
76348;SDS011;65172;46.764;15.406;2023-04-01T03:06:06;9.75;;;7.10;;
76348;SDS011;65172;46.764;15.406;2023-04-01T03:08:32;9.52;;;7.30;;
76348;SDS011;65172;46.764;15.406;2023-04-01T03:10:58;11.30;;;6.95;;
76348;SDS011;65172;46.764;15.406;2023-04-01T03:13:23;12.55;;;7.50;;
76348;SDS011;65172;46.764;15.406;2023-04-01T03:15:49;10.00;;;7.90;;
76348;SDS011;65172;46.764;15.406;2023-04-01T03:18:15;8.57;;;5.72;;
76348;SDS011;65172;46.764;15.406;2023-04-01T03:20:40;10.98;;;8.02;;
76348;SDS011;65172;46.764;15.406;2023-04-01T03:23:07;8.77;;;6.22;;
76348;SDS011;65172;46.764;15.406;2023-04-01T03:25:32;7.53;;;5.65;;
76348;SDS011;65172;46.764;15.406;2023-04-01T03:27:58;9.63;;;6.32;;
76348;SDS011;65172;46.764;15.406;2023-04-01T03:30:24;13.88;;;9.20;;
76348;SDS011;65172;46.764;15.406;2023-04-01T03:32:50;12.00;;;7.65;;
76348;SDS011;65172;46.764;15.406;2023-04-01T03:35:16;9.88;;;6.30;;
76348;SDS011;65172;46.764;15.406;2023-04-01T03:37:42;11.05;;;7.53;;
76348;SDS011;65172;46.764;15.406;2023-04-01T03:40:07;7.68;;;4.70;;
76348;SDS011;65172;46.764;15.406;2023-04-01T03:42:33;11.25;;;7.75;;
76348;SDS011;65172;46.764;15.406;2023-04-01T03:44:59;7.72;;;5.45;;
76348;SDS011;65172;46.764;15.406;2023-04-01T03:47:25;9.38;;;5.90;;
76348;SDS011;65172;46.764;15.406;2023-04-01T03:49:50;8.23;;;5.38;;
76348;SDS011;65172;46.764;15.406;2023-04-01T03:52:16;8.18;;;5.68;;
76348;SDS011;65172;46.764;15.406;2023-04-01T03:54:41;11.88;;;6.85;;
76348;SDS011;65172;46.764;15.406;2023-04-01T03:57:07;9.27;;;6.43;;
76348;SDS011;65172;46.764;15.406;2023-04-01T03:59:32;6.07;;;4.93;;
76348;SDS011;65172;46.764;15.406;2023-04-01T04:01:58;6.03;;;4.60;;
76348;SDS011;65172;46.764;15.406;2023-04-01T04:04:23;10.00;;;6.60;;
76348;SDS011;65172;46.764;15.406;2023-04-01T04:06:49;9.57;;;5.00;;
76348;SDS011;65172;46.764;15.406;2023-04-01T04:09:15;7.75;;;5.10;;
76348;SDS011;65172;46.764;15.406;2023-04-01T04:11:41;8.43;;;3.38;;
76348;SDS011;65172;46.764;15.406;2023-04-01T04:14:06;3.53;;;2.72;;
76348;SDS011;65172;46.764;15.406;2023-04-01T04:16:32;3.10;;;2.47;;
76348;SDS011;65172;46.764;15.406;2023-04-01T04:19:01;8.70;;;7.68;;
76348;SDS011;65172;46.764;15.406;2023-04-01T04:21:27;4.30;;;3.30;;
76348;SDS011;65172;46.764;15.406;2023-04-01T04:23:53;2.47;;;2.13;;
76348;SDS011;65172;46.764;15.406;2023-04-01T04:26:18;4.00;;;3.58;;
76348;SDS011;65172;46.764;15.406;2023-04-01T04:28:44;6.20;;;4.20;;
76348;SDS011;65172;46.764;15.406;2023-04-01T04:31:13;3.30;;;1.58;;
76348;SDS011;65172;46.764;15.406;2023-04-01T04:33:44;3.33;;;2.97;;
76348;SDS011;65172;46.764;15.406;2023-04-01T04:36:10;3.40;;;2.50;;
76348;SDS011;65172;46.764;15.406;2023-04-01T04:38:35;2.90;;;1.83;;
76348;SDS011;65172;46.764;15.406;2023-04-01T04:41:01;2.63;;;1.75;;
76348;SDS011;65172;46.764;15.406;2023-04-01T04:43:26;1.92;;;1.50;;
76348;SDS011;65172;46.764;15.406;2023-04-01T04:45:51;2.25;;;1.40;;
76348;SDS011;65172;46.764;15.406;2023-04-01T04:48:17;2.17;;;1.70;;
76348;SDS011;65172;46.764;15.406;2023-04-01T04:50:49;2.05;;;1.55;;
76348;SDS011;65172;46.764;15.406;2023-04-01T04:53:16;2.92;;;1.55;;
76348;SDS011;65172;46.764;15.406;2023-04-01T04:55:51;2.33;;;1.65;;
76348;SDS011;65172;46.764;15.406;2023-04-01T04:58:17;2.92;;;1.67;;
76348;SDS011;65172;46.764;15.406;2023-04-01T05:00:43;4.82;;;1.38;;
76348;SDS011;65172;46.764;15.406;2023-04-01T05:03:09;2.15;;;1.73;;
76348;SDS011;65172;46.764;15.406;2023-04-01T05:05:35;3.75;;;2.10;;
76348;SDS011;65172;46.764;15.406;2023-04-01T05:08:01;2.15;;;1.38;;
76348;SDS011;65172;46.764;15.406;2023-04-01T05:10:26;2.38;;;1.95;;
76348;SDS011;65172;46.764;15.406;2023-04-01T05:12:52;4.13;;;1.60;;
76348;SDS011;65172;46.764;15.406;2023-04-01T05:15:17;2.75;;;1.80;;
76348;SDS011;65172;46.764;15.406;2023-04-01T05:17:46;4.07;;;3.17;;
76348;SDS011;65172;46.764;15.406;2023-04-01T05:20:12;2.25;;;1.40;;
76348;SDS011;65172;46.764;15.406;2023-04-01T05:22:39;2.10;;;1.17;;
76348;SDS011;65172;46.764;15.406;2023-04-01T05:25:04;2.00;;;1.23;;
76348;SDS011;65172;46.764;15.406;2023-04-01T05:27:30;2.00;;;1.40;;
76348;SDS011;65172;46.764;15.406;2023-04-01T05:29:57;2.40;;;1.40;;
76348;SDS011;65172;46.764;15.406;2023-04-01T05:32:22;2.40;;;1.42;;
76348;SDS011;65172;46.764;15.406;2023-04-01T05:34:50;2.47;;;1.50;;
76348;SDS011;65172;46.764;15.406;2023-04-01T05:37:16;2.55;;;1.48;;
76348;SDS011;65172;46.764;15.406;2023-04-01T05:39:41;5.47;;;2.13;;
76348;SDS011;65172;46.764;15.406;2023-04-01T05:42:07;3.28;;;2.45;;
76348;SDS011;65172;46.764;15.406;2023-04-01T05:44:33;5.40;;;2.30;;
76348;SDS011;65172;46.764;15.406;2023-04-01T05:46:58;3.63;;;2.08;;
76348;SDS011;65172;46.764;15.406;2023-04-01T05:49:24;4.15;;;1.58;;
76348;SDS011;65172;46.764;15.406;2023-04-01T05:51:50;1.88;;;1.25;;
76348;SDS011;65172;46.764;15.406;2023-04-01T05:54:16;2.47;;;1.65;;
76348;SDS011;65172;46.764;15.406;2023-04-01T05:56:42;5.03;;;1.38;;
76348;SDS011;65172;46.764;15.406;2023-04-01T05:59:09;3.92;;;1.60;;
76348;SDS011;65172;46.764;15.406;2023-04-01T06:01:35;1.83;;;0.98;;
76348;SDS011;65172;46.764;15.406;2023-04-01T06:04:01;2.45;;;1.30;;
76348;SDS011;65172;46.764;15.406;2023-04-01T06:06:27;1.90;;;1.20;;
76348;SDS011;65172;46.764;15.406;2023-04-01T06:08:55;1.50;;;1.10;;
76348;SDS011;65172;46.764;15.406;2023-04-01T06:11:25;3.33;;;1.33;;
76348;SDS011;65172;46.764;15.406;2023-04-01T06:19:32;4.65;;;1.23;;
76348;SDS011;65172;46.764;15.406;2023-04-01T06:36:03;1.60;;;0.95;;
76348;SDS011;65172;46.764;15.406;2023-04-01T06:38:41;1.23;;;0.73;;
76348;SDS011;65172;46.764;15.406;2023-04-01T06:46:57;1.13;;;0.95;;
76348;SDS011;65172;46.764;15.406;2023-04-01T06:49:28;1.10;;;0.88;;
76348;SDS011;65172;46.764;15.406;2023-04-01T06:52:05;9.65;;;1.40;;
76348;SDS011;65172;46.764;15.406;2023-04-01T06:54:42;2.30;;;1.10;;
76348;SDS011;65172;46.764;15.406;2023-04-01T06:59:49;1.05;;;0.90;;
76348;SDS011;65172;46.764;15.406;2023-04-01T07:02:21;2.42;;;1.00;;
76348;SDS011;65172;46.764;15.406;2023-04-01T07:04:55;1.58;;;0.90;;
76348;SDS011;65172;46.764;15.406;2023-04-01T07:07:33;1.20;;;1.00;;
76348;SDS011;65172;46.764;15.406;2023-04-01T07:10:03;3.25;;;0.98;;
76348;SDS011;65172;46.764;15.406;2023-04-01T07:14:57;2.95;;;0.90;;
76348;SDS011;65172;46.764;15.406;2023-04-01T07:17:31;1.05;;;0.70;;
76348;SDS011;65172;46.764;15.406;2023-04-01T07:20:03;2.10;;;1.00;;
76348;SDS011;65172;46.764;15.406;2023-04-01T07:22:42;2.60;;;0.95;;
76348;SDS011;65172;46.764;15.406;2023-04-01T07:27:38;1.95;;;1.10;;
76348;SDS011;65172;46.764;15.406;2023-04-01T07:30:06;16.05;;;3.33;;
76348;SDS011;65172;46.764;15.406;2023-04-01T07:32:42;2.22;;;0.75;;
76348;SDS011;65172;46.764;15.406;2023-04-01T07:40:52;1.27;;;0.90;;
76348;SDS011;65172;46.764;15.406;2023-04-01T07:57:43;3.03;;;1.10;;
76348;SDS011;65172;46.764;15.406;2023-04-01T08:02:58;2.60;;;0.63;;
76348;SDS011;65172;46.764;15.406;2023-04-01T08:06:06;2.83;;;0.80;;
76348;SDS011;65172;46.764;15.406;2023-04-01T08:11:27;1.70;;;0.80;;
76348;SDS011;65172;46.764;15.406;2023-04-01T08:14:03;0.85;;;0.65;;
76348;SDS011;65172;46.764;15.406;2023-04-01T08:16:50;0.80;;;0.43;;
76348;SDS011;65172;46.764;15.406;2023-04-01T08:19:38;1.80;;;0.60;;
76348;SDS011;65172;46.764;15.406;2023-04-01T08:22:16;1.40;;;0.82;;
76348;SDS011;65172;46.764;15.406;2023-04-01T08:24:46;4.72;;;0.60;;
76348;SDS011;65172;46.764;15.406;2023-04-01T08:27:34;0.75;;;0.52;;
76348;SDS011;65172;46.764;15.406;2023-04-01T08:30:18;2.05;;;0.50;;
76348;SDS011;65172;46.764;15.406;2023-04-01T08:33:29;2.08;;;0.80;;
76348;SDS011;65172;46.764;15.406;2023-04-01T08:36:15;1.25;;;0.80;;
76348;SDS011;65172;46.764;15.406;2023-04-01T08:52:12;1.35;;;0.60;;
76348;SDS011;65172;46.764;15.406;2023-04-01T08:57:52;2.63;;;0.97;;
76348;SDS011;65172;46.764;15.406;2023-04-01T09:19:24;2.17;;;0.75;;
76348;SDS011;65172;46.764;15.406;2023-04-01T09:30:31;4.05;;;0.70;;
76348;SDS011;65172;46.764;15.406;2023-04-01T09:35:48;30.52;;;8.93;;
76348;SDS011;65172;46.764;15.406;2023-04-01T09:41:01;6.88;;;2.40;;
76348;SDS011;65172;46.764;15.406;2023-04-01T09:43:47;17.73;;;6.72;;
76348;SDS011;65172;46.764;15.406;2023-04-01T09:54:56;1.05;;;0.30;;
76348;SDS011;65172;46.764;15.406;2023-04-01T09:57:40;5.45;;;0.32;;
76348;SDS011;65172;46.764;15.406;2023-04-01T10:15:26;0.65;;;0.43;;
76348;SDS011;65172;46.764;15.406;2023-04-01T10:37:42;1.60;;;0.60;;
76348;SDS011;65172;46.764;15.406;2023-04-01T10:48:56;0.40;;;0.25;;
76348;SDS011;65172;46.764;15.406;2023-04-01T11:42:13;0.85;;;0.30;;
76348;SDS011;65172;46.764;15.406;2023-04-01T11:44:28;0.90;;;0.30;;
76348;SDS011;65172;46.764;15.406;2023-04-01T11:52:51;0.35;;;0.20;;
76348;SDS011;65172;46.764;15.406;2023-04-01T12:00:58;2.65;;;0.73;;
76348;SDS011;65172;46.764;15.406;2023-04-01T12:12:32;1.15;;;0.20;;
76348;SDS011;65172;46.764;15.406;2023-04-01T12:20:41;0.40;;;0.30;;
76348;SDS011;65172;46.764;15.406;2023-04-01T12:28:37;2.15;;;0.80;;
76348;SDS011;65172;46.764;15.406;2023-04-01T12:36:33;2.67;;;0.30;;
76348;SDS011;65172;46.764;15.406;2023-04-01T12:44:49;1.35;;;0.30;;
76348;SDS011;65172;46.764;15.406;2023-04-01T12:59:19;0.68;;;0.38;;
76348;SDS011;65172;46.764;15.406;2023-04-01T13:21:24;0.20;;;0.20;;
76348;SDS011;65172;46.764;15.406;2023-04-01T13:24:03;3.13;;;0.20;;
76348;SDS011;65172;46.764;15.406;2023-04-01T13:29:14;2.88;;;0.32;;
76348;SDS011;65172;46.764;15.406;2023-04-01T13:34:34;0.45;;;0.40;;
76348;SDS011;65172;46.764;15.406;2023-04-01T13:40:30;2.05;;;0.20;;
76348;SDS011;65172;46.764;15.406;2023-04-01T13:42:47;1.05;;;0.40;;
76348;SDS011;65172;46.764;15.406;2023-04-01T13:45:21;0.50;;;0.30;;
76348;SDS011;65172;46.764;15.406;2023-04-01T13:59:35;3.10;;;0.60;;
76348;SDS011;65172;46.764;15.406;2023-04-01T14:11:19;0.40;;;0.30;;
